createdAt,value
2019-01-05T00:01:05.701Z,33.00
2019-01-05T00:02:30.136Z,34.03
2019-01-05T00:04:00.260Z,33.08
2019-01-05T00:05:26.252Z,33.28
2019-01-05T00:07:02.524Z,34.58
2019-01-05T00:08:25.058Z,31.77
2019-01-05T00:10:04.883Z,30.12
2019-01-05T00:11:41.316Z,30.35
2019-01-05T00:13:15.411Z,27.48
2019-01-05T00:14:57.419Z,31.60
2019-01-05T00:16:20.291Z,31.17
2019-01-05T00:17:43.164Z,31.33
2019-01-05T00:19:05.875Z,30.80
2019-01-05T00:20:30.054Z,32.98
2019-01-05T00:21:52.467Z,32.25
2019-01-05T00:23:19.354Z,32.58
2019-01-05T00:24:41.587Z,30.50
2019-01-05T00:26:16.994Z,30.82
2019-01-05T00:27:40.000Z,28.98
2019-01-05T00:28:57.414Z,29.57
2019-01-05T00:30:29.914Z,30.52
2019-01-05T00:32:03.189Z,30.85
2019-01-05T00:33:29.538Z,31.62
2019-01-05T00:34:57.667Z,33.60
2019-01-05T00:36:24.148Z,27.60
2019-01-05T00:37:52.110Z,30.50
2019-01-05T00:39:12.018Z,29.57
2019-01-05T00:40:42.494Z,31.97
2019-01-05T00:42:07.688Z,30.82
2019-01-05T00:43:34.116Z,30.60
2019-01-05T00:45:02.182Z,30.10
2019-01-05T00:46:24.004Z,30.12
2019-01-05T00:47:56.707Z,31.07
2019-01-05T00:49:26.869Z,31.48
2019-01-05T00:50:55.451Z,32.95
2019-01-05T00:52:20.659Z,30.65
2019-01-05T00:53:56.781Z,27.50
2019-01-05T00:55:25.893Z,28.42
2019-01-05T00:56:48.746Z,25.43
2019-01-05T00:58:11.463Z,29.80
2019-01-05T00:59:35.032Z,28.17
2019-01-05T01:01:03.589Z,28.90
2019-01-05T01:02:27.723Z,29.45
2019-01-05T01:03:45.803Z,29.67
2019-01-05T01:05:10.013Z,27.95
2019-01-05T01:06:52.315Z,28.10
2019-01-05T01:08:11.438Z,28.65
2019-01-05T01:09:50.962Z,25.17
2019-01-05T01:11:13.419Z,27.52
2019-01-05T01:12:35.993Z,26.65
2019-01-05T01:13:49.379Z,27.50
2019-01-05T01:15:28.026Z,27.30
2019-01-05T01:16:57.390Z,28.23
2019-01-05T01:18:20.322Z,24.92
2019-01-05T01:19:43.165Z,25.70
2019-01-05T01:21:13.367Z,25.82
2019-01-05T01:22:36.324Z,24.87
2019-01-05T01:23:59.756Z,20.23
2019-01-05T01:25:24.659Z,24.70
2019-01-05T01:26:50.142Z,24.30
2019-01-05T01:28:13.477Z,25.15
2019-01-05T01:29:36.121Z,24.72
2019-01-05T01:31:07.501Z,23.27
2019-01-05T01:32:29.995Z,22.82
2019-01-05T01:34:04.112Z,22.35
2019-01-05T01:35:29.196Z,23.15
2019-01-05T01:36:44.361Z,23.30
2019-01-05T01:38:35.046Z,19.62
2019-01-05T01:39:59.706Z,23.27
2019-01-05T01:41:25.218Z,20.23
2019-01-05T01:42:46.046Z,22.25
2019-01-05T01:44:11.921Z,21.75
2019-01-05T01:45:36.358Z,19.12
2019-01-05T01:47:07.545Z,22.37
2019-01-05T01:48:34.080Z,20.68
2019-01-05T01:50:09.252Z,21.77
2019-01-05T01:51:33.598Z,18.85
2019-01-05T01:52:59.193Z,20.95
2019-01-05T01:54:32.481Z,21.85
2019-01-05T01:56:04.127Z,20.52
2019-01-05T01:57:27.768Z,17.50
2019-01-05T01:59:03.518Z,20.70
2019-01-05T02:00:30.768Z,17.92
2019-01-05T02:01:55.864Z,19.90
2019-01-05T02:03:12.112Z,19.73
2019-01-05T02:04:34.983Z,17.92
2019-01-05T02:06:02.273Z,18.90
2019-01-05T02:07:32.904Z,16.85
2019-01-05T02:09:08.143Z,18.25
2019-01-05T02:10:44.755Z,18.80
2019-01-05T02:12:07.915Z,17.25
2019-01-05T02:13:49.343Z,16.57
2019-01-05T02:15:16.793Z,16.57
2019-01-05T02:16:44.625Z,16.65
2019-01-05T02:18:18.673Z,17.48
2019-01-05T02:20:02.732Z,16.25
2019-01-05T02:21:42.057Z,16.02
2019-01-05T02:24:04.162Z,15.40
2019-01-05T02:25:57.974Z,14.05
2019-01-05T02:28:08.566Z,14.65
2019-01-05T02:30:06.150Z,13.20
2019-01-05T02:31:55.231Z,13.88
2019-01-05T02:33:52.741Z,12.03
2019-01-05T02:35:56.969Z,13.10
2019-01-05T02:37:47.618Z,11.75
2019-01-05T02:39:38.945Z,14.05
2019-01-05T02:41:46.862Z,13.10
2019-01-05T02:44:01.315Z,12.33
2019-01-05T02:46:16.174Z,12.43
2019-01-05T02:48:37.036Z,13.30
2019-01-05T02:50:58.495Z,11.22
2019-01-05T02:52:50.414Z,13.48
2019-01-05T02:54:44.432Z,13.40
2019-01-05T02:56:48.189Z,14.45
2019-01-05T02:58:48.447Z,13.38
2019-01-05T03:00:58.883Z,13.43
2019-01-05T03:02:45.924Z,13.38
2019-01-05T03:04:44.359Z,13.80
2019-01-05T03:07:28.509Z,14.00
2019-01-05T03:09:33.679Z,10.70
2019-01-05T03:11:50.032Z,11.50
2019-01-05T03:13:58.226Z,11.18
2019-01-05T03:15:38.134Z,12.30
2019-01-05T03:17:51.855Z,11.33
2019-01-05T03:19:47.138Z,13.68
2019-01-05T03:22:01.231Z,11.38
2019-01-05T03:24:12.986Z,11.78
2019-01-05T03:26:19.235Z,10.65
2019-01-05T03:28:20.103Z,8.40
2019-01-05T03:30:12.324Z,11.18
2019-01-05T03:32:24.594Z,11.05
2019-01-05T03:34:07.415Z,11.60
2019-01-05T03:36:38.326Z,11.48
2019-01-05T03:38:53.582Z,10.35
2019-01-05T03:40:54.861Z,11.85
2019-01-05T03:43:07.189Z,11.73
2019-01-05T03:45:05.692Z,10.40
2019-01-05T03:46:54.095Z,10.85
2019-01-05T03:49:11.256Z,10.75
2019-01-05T03:51:18.709Z,11.05
2019-01-05T03:53:18.096Z,10.32
2019-01-05T03:55:40.954Z,9.85
2019-01-05T03:57:35.740Z,9.20
2019-01-05T03:59:27.254Z,10.45
2019-01-05T04:01:46.482Z,10.38
2019-01-05T04:03:48.722Z,9.28
2019-01-05T04:05:56.957Z,10.78
2019-01-05T04:08:25.766Z,10.30
2019-01-05T04:10:24.984Z,9.83
2019-01-05T04:12:23.076Z,10.58
2019-01-05T04:14:23.324Z,11.33
2019-01-05T04:16:20.470Z,8.55
2019-01-05T04:18:37.826Z,9.95
2019-01-05T04:20:40.572Z,8.40
2019-01-05T04:23:12.579Z,9.15
2019-01-05T04:25:29.138Z,8.63
2019-01-05T04:27:45.365Z,8.30
2019-01-05T04:29:45.138Z,9.13
2019-01-05T04:31:39.039Z,8.63
2019-01-05T04:33:50.425Z,10.63
2019-01-05T04:35:54.001Z,9.73
2019-01-05T04:37:56.869Z,8.80
2019-01-05T04:39:44.702Z,8.00
2019-01-05T04:41:44.173Z,8.73
2019-01-05T04:44:09.061Z,9.38
2019-01-05T04:46:27.071Z,7.65
2019-01-05T04:48:40.843Z,8.75
2019-01-05T04:50:40.131Z,7.50
2019-01-05T04:52:54.503Z,7.35
2019-01-05T04:55:13.003Z,8.00
2019-01-05T04:57:18.548Z,6.65
2019-01-05T04:59:16.509Z,7.42
2019-01-05T05:01:18.917Z,7.87
2019-01-05T05:03:34.503Z,7.05
2019-01-05T05:05:23.756Z,6.90
2019-01-05T05:07:07.141Z,6.58
2019-01-05T05:09:21.557Z,7.78
2019-01-05T05:11:24.993Z,7.90
2019-01-05T05:13:46.004Z,6.90
2019-01-05T05:15:44.689Z,7.45
2019-01-05T05:17:36.138Z,6.55
2019-01-05T05:19:48.026Z,5.90
2019-01-05T05:21:54.044Z,7.60
2019-01-05T05:23:50.169Z,5.92
2019-01-05T05:25:38.649Z,5.80
2019-01-05T05:27:56.144Z,6.70
2019-01-05T05:30:01.313Z,6.03
2019-01-05T05:32:00.062Z,6.05
2019-01-05T05:34:10.088Z,6.03
2019-01-05T05:36:19.336Z,5.30
2019-01-05T05:38:41.083Z,5.55
2019-01-05T05:40:55.418Z,6.80
2019-01-05T05:42:51.917Z,6.03
2019-01-05T05:44:53.352Z,7.33
2019-01-05T05:46:36.598Z,6.08
2019-01-05T05:48:40.798Z,6.60
2019-01-05T05:51:03.131Z,5.45
2019-01-05T05:53:17.661Z,5.90
2019-01-05T05:55:13.496Z,6.40
2019-01-05T05:57:14.718Z,6.12
2019-01-05T05:59:25.035Z,5.50
2019-01-05T06:01:24.424Z,6.35
2019-01-05T06:03:03.362Z,5.75
2019-01-05T06:05:11.453Z,6.35
2019-01-05T06:06:46.686Z,6.37
2019-01-05T06:08:53.880Z,6.42
2019-01-05T06:10:53.365Z,6.35
2019-01-05T06:12:51.670Z,5.90
2019-01-05T06:14:39.117Z,6.00
2019-01-05T06:16:44.584Z,6.67
2019-01-05T06:18:42.909Z,6.03
2019-01-05T06:20:25.985Z,6.10
2019-01-05T06:22:17.487Z,6.33
2019-01-05T06:24:11.713Z,6.10
2019-01-05T06:26:14.521Z,6.08
2019-01-05T06:28:14.197Z,5.75
2019-01-05T06:30:27.585Z,4.28
2019-01-05T06:32:33.207Z,5.15
2019-01-05T06:34:22.802Z,4.83
2019-01-05T06:36:54.820Z,5.22
2019-01-05T06:39:29.064Z,4.35
2019-01-05T06:41:57.346Z,4.05
2019-01-05T06:44:30.023Z,4.80
2019-01-05T06:46:41.116Z,4.10
2019-01-05T06:48:52.567Z,4.35
2019-01-05T06:51:05.620Z,4.25
2019-01-05T06:53:22.428Z,3.35
2019-01-05T06:55:23.169Z,3.00
2019-01-05T06:57:21.177Z,3.42
2019-01-05T06:59:25.029Z,4.12
2019-01-05T07:01:31.481Z,3.80
2019-01-05T07:03:42.103Z,4.00
2019-01-05T07:06:00.335Z,3.85
2019-01-05T07:08:16.541Z,3.10
2019-01-05T07:10:20.404Z,2.70
2019-01-05T07:12:16.100Z,2.85
2019-01-05T07:14:26.333Z,1.47
2019-01-05T07:16:16.115Z,2.47
2019-01-05T07:18:38.244Z,2.42
2019-01-05T07:20:27.608Z,1.57
2019-01-05T07:22:18.422Z,2.58
2019-01-05T07:24:46.629Z,1.82
2019-01-05T07:26:47.931Z,1.65
2019-01-05T07:28:53.150Z,1.30
2019-01-05T07:30:58.711Z,1.65
2019-01-05T07:32:35.409Z,2.75
2019-01-05T07:34:54.044Z,2.17
2019-01-05T07:37:06.228Z,1.90
2019-01-05T07:39:21.740Z,2.20
2019-01-05T07:41:19.776Z,1.95
2019-01-05T07:43:29.903Z,2.20
2019-01-05T07:45:35.134Z,1.90
2019-01-05T07:47:36.572Z,2.25
2019-01-05T07:49:31.086Z,2.25
2019-01-05T07:51:48.308Z,2.87
2019-01-05T07:54:09.958Z,2.17
2019-01-05T07:56:20.758Z,2.20
2019-01-05T07:58:08.387Z,2.47
2019-01-05T08:00:36.091Z,1.70
2019-01-05T08:02:38.288Z,3.30
2019-01-05T08:04:22.796Z,2.77
2019-01-05T08:06:25.373Z,2.98
2019-01-05T08:08:35.945Z,1.98
2019-01-05T08:10:42.911Z,2.72
2019-01-05T08:12:27.358Z,3.30
2019-01-05T08:14:15.781Z,2.40
2019-01-05T08:16:24.233Z,1.95
2019-01-05T08:18:36.562Z,2.98
2019-01-05T08:20:37.727Z,2.83
2019-01-05T08:22:47.669Z,2.37
2019-01-05T08:24:54.992Z,2.90
2019-01-05T08:27:08.415Z,2.90
2019-01-05T08:29:24.644Z,2.98
2019-01-05T08:31:32.786Z,2.52
2019-01-05T08:33:28.991Z,2.70
2019-01-05T08:35:33.954Z,3.87
2019-01-05T08:37:52.408Z,2.30
2019-01-05T08:39:55.088Z,3.40
2019-01-05T08:41:54.263Z,2.98
2019-01-05T08:44:09.824Z,3.87
2019-01-05T08:46:14.658Z,2.65
2019-01-05T08:48:07.524Z,2.83
2019-01-05T08:50:45.714Z,2.65
2019-01-05T08:52:47.643Z,2.10
2019-01-05T08:54:28.822Z,3.02
2019-01-05T08:56:30.988Z,2.50
2019-01-05T08:58:40.387Z,3.17
2019-01-05T09:00:48.560Z,2.80
2019-01-05T09:02:46.744Z,2.10
2019-01-05T09:04:46.105Z,2.87
2019-01-05T09:06:46.826Z,2.58
2019-01-05T09:08:57.093Z,3.22
2019-01-05T09:11:12.298Z,2.70
2019-01-05T09:13:14.373Z,3.33
2019-01-05T09:15:31.647Z,2.80
2019-01-05T09:17:23.208Z,2.55
2019-01-05T09:19:20.247Z,3.50
2019-01-05T09:21:36.043Z,4.05
2019-01-05T09:23:41.679Z,3.00
2019-01-05T09:25:38.098Z,3.50
2019-01-05T09:27:37.481Z,3.67
2019-01-05T09:29:50.458Z,2.87
2019-01-05T09:32:03.355Z,3.72
2019-01-05T09:33:57.923Z,3.27
2019-01-05T09:35:53.510Z,3.08
2019-01-05T09:37:51.936Z,3.30
2019-01-05T09:39:49.768Z,2.75
2019-01-05T09:42:00.284Z,2.80
2019-01-05T09:44:12.866Z,3.45
2019-01-05T09:46:22.345Z,3.58
2019-01-05T09:48:29.139Z,3.52
2019-01-05T09:50:31.130Z,3.37
2019-01-05T09:52:35.007Z,3.72
2019-01-05T09:54:49.220Z,3.20
2019-01-05T09:57:03.388Z,3.37
2019-01-05T09:59:08.405Z,4.03
2019-01-05T10:01:16.799Z,3.10
2019-01-05T10:03:26.172Z,2.92
2019-01-05T10:05:11.424Z,3.05
2019-01-05T10:07:21.669Z,3.12
2019-01-05T10:09:16.195Z,3.85
2019-01-05T10:11:15.552Z,3.55
2019-01-05T10:13:09.384Z,2.75
2019-01-05T10:15:35.834Z,3.50
2019-01-05T10:17:52.833Z,2.42
2019-01-05T10:19:59.562Z,3.45
2019-01-05T10:22:07.567Z,3.65
2019-01-05T10:24:22.969Z,3.30
2019-01-05T10:26:24.353Z,5.42
2019-01-05T10:28:35.904Z,3.17
2019-01-05T10:30:45.262Z,2.20
2019-01-05T10:32:46.173Z,3.67
2019-01-05T10:35:04.753Z,3.70
2019-01-05T10:37:04.211Z,3.60
2019-01-05T10:39:06.615Z,3.72
2019-01-05T10:40:49.710Z,3.50
2019-01-05T10:42:51.906Z,3.62
2019-01-05T10:44:56.712Z,3.40
2019-01-05T10:46:53.807Z,3.10
2019-01-05T10:49:10.011Z,4.80
2019-01-05T10:51:24.744Z,3.85
2019-01-05T10:53:25.140Z,3.72
2019-01-05T10:55:47.793Z,3.30
2019-01-05T10:57:54.568Z,4.10
2019-01-05T11:00:01.752Z,3.30
2019-01-05T11:02:02.805Z,3.72
2019-01-05T11:04:04.675Z,3.12
2019-01-05T11:06:03.786Z,4.42
2019-01-05T11:08:16.352Z,3.92
2019-01-05T11:10:26.387Z,3.33
2019-01-05T11:12:55.983Z,4.12
2019-01-05T11:15:01.449Z,3.75
2019-01-05T11:16:56.817Z,3.98
2019-01-05T11:18:57.661Z,3.92
2019-01-05T11:20:37.794Z,3.85
2019-01-05T11:22:35.608Z,3.33
2019-01-05T11:24:42.202Z,3.95
2019-01-05T11:26:40.411Z,4.10
2019-01-05T11:28:50.244Z,3.92
2019-01-05T11:31:07.685Z,3.90
2019-01-05T11:33:15.529Z,4.20
2019-01-05T11:35:01.943Z,4.15
2019-01-05T11:37:07.930Z,3.87
2019-01-05T11:39:21.980Z,2.85
2019-01-05T11:41:27.560Z,5.50
2019-01-05T11:43:20.271Z,4.15
2019-01-05T11:45:11.780Z,4.95
2019-01-05T11:47:25.021Z,4.10
2019-01-05T11:49:14.961Z,3.92
2019-01-05T11:51:12.782Z,3.90
2019-01-05T11:53:11.043Z,3.30
2019-01-05T11:54:53.237Z,3.55
2019-01-05T11:57:07.166Z,4.37
2019-01-05T11:59:22.828Z,3.10
2019-01-05T12:01:26.276Z,4.55
2019-01-05T12:03:34.649Z,3.35
2019-01-05T12:05:34.975Z,3.08
2019-01-05T12:07:38.628Z,3.65
2019-01-05T12:09:41.115Z,3.60
2019-01-05T12:11:35.685Z,4.50
2019-01-05T12:13:49.242Z,3.85
2019-01-05T12:15:47.118Z,3.83
2019-01-05T12:18:08.265Z,5.58
2019-01-05T12:19:52.349Z,4.25
2019-01-05T12:22:00.589Z,3.47
2019-01-05T12:24:18.563Z,5.37
2019-01-05T12:26:29.912Z,4.53
2019-01-05T12:28:41.000Z,2.70
2019-01-05T12:30:40.514Z,4.00
2019-01-05T12:32:52.898Z,4.50
2019-01-05T12:35:01.211Z,2.75
2019-01-05T12:36:59.497Z,3.67
2019-01-05T12:39:01.653Z,3.27
2019-01-05T12:40:58.317Z,3.08
2019-01-05T12:42:54.109Z,3.77
2019-01-05T12:45:01.618Z,4.03
2019-01-05T12:47:05.525Z,3.72
2019-01-05T12:48:56.157Z,4.20
2019-01-05T12:50:54.809Z,3.95
2019-01-05T12:52:53.955Z,3.90
2019-01-05T12:55:17.191Z,3.65
2019-01-05T12:57:18.281Z,3.95
2019-01-05T12:59:04.966Z,3.95
2019-01-05T13:00:57.687Z,3.47
2019-01-05T13:03:19.568Z,4.33
2019-01-05T13:05:10.530Z,2.77
2019-01-05T13:07:23.010Z,3.47
2019-01-05T13:09:33.694Z,4.08
2019-01-05T13:12:11.544Z,3.15
2019-01-05T13:14:09.690Z,4.05
2019-01-05T13:16:12.780Z,4.30
2019-01-05T13:18:16.483Z,3.22
2019-01-05T13:20:07.213Z,3.08
2019-01-05T13:22:20.339Z,3.20
2019-01-05T13:24:26.455Z,2.92
2019-01-05T13:26:24.682Z,4.03
2019-01-05T13:28:34.483Z,3.60
2019-01-05T13:30:48.689Z,2.72
2019-01-05T13:32:52.194Z,2.83
2019-01-05T13:35:13.814Z,3.55
2019-01-05T13:37:13.842Z,3.05
2019-01-05T13:39:09.232Z,2.05
2019-01-05T13:41:27.840Z,3.40
2019-01-05T13:43:36.403Z,3.12
2019-01-05T13:45:27.579Z,2.50
2019-01-05T13:47:20.350Z,3.17
2019-01-05T13:49:34.755Z,2.25
2019-01-05T13:51:35.310Z,2.62
2019-01-05T13:53:19.366Z,1.87
2019-01-05T13:54:42.106Z,2.60
2019-01-05T13:56:32.552Z,3.12
2019-01-05T13:57:56.997Z,3.37
2019-01-05T13:59:18.088Z,1.90
2019-01-05T14:00:44.253Z,3.27
2019-01-05T14:02:27.240Z,3.27
2019-01-05T14:03:58.843Z,3.10
2019-01-05T14:05:33.191Z,2.30
2019-01-05T14:06:53.946Z,3.00
2019-01-05T14:08:14.711Z,2.60
2019-01-05T14:09:37.040Z,3.25
2019-01-05T14:11:13.052Z,2.92
2019-01-05T14:12:35.479Z,3.35
2019-01-05T14:13:56.808Z,3.10
2019-01-05T14:15:35.811Z,2.55
2019-01-05T14:16:58.481Z,2.58
2019-01-05T14:18:16.805Z,2.80
2019-01-05T14:19:40.816Z,2.65
2019-01-05T14:21:05.081Z,4.22
2019-01-05T14:22:46.822Z,2.50
2019-01-05T14:24:09.157Z,2.55
2019-01-05T14:25:42.952Z,2.62
2019-01-05T14:27:25.114Z,4.10
2019-01-05T14:28:47.518Z,2.70
2019-01-05T14:30:14.222Z,2.17
2019-01-05T14:31:41.239Z,2.70
2019-01-05T14:33:08.354Z,3.08
2019-01-05T14:34:30.922Z,2.33
2019-01-05T14:35:54.210Z,2.65
2019-01-05T14:37:06.991Z,2.27
2019-01-05T14:38:36.879Z,2.30
2019-01-05T14:39:59.511Z,2.10
2019-01-05T14:41:13.659Z,2.75
2019-01-05T14:42:36.217Z,2.83
2019-01-05T14:44:02.645Z,2.25
2019-01-05T14:45:27.622Z,2.40
2019-01-05T14:46:54.341Z,3.55
2019-01-05T14:48:18.375Z,2.85
2019-01-05T14:49:41.564Z,3.02
2019-01-05T14:51:11.759Z,2.15
2019-01-05T14:52:28.623Z,3.00
2019-01-05T14:53:54.388Z,2.65
2019-01-05T14:55:18.609Z,2.72
2019-01-05T14:56:41.747Z,2.75
2019-01-05T14:58:13.259Z,2.72
2019-01-05T14:59:38.887Z,2.75
2019-01-05T15:00:56.348Z,2.83
2019-01-05T15:02:18.871Z,2.60
2019-01-05T15:03:49.271Z,2.05
2019-01-05T15:05:19.432Z,2.42
2019-01-05T15:06:42.507Z,2.80
2019-01-05T15:08:18.545Z,2.55
2019-01-05T15:09:38.955Z,2.15
2019-01-05T15:11:01.267Z,2.35
2019-01-05T15:12:40.204Z,2.40
2019-01-05T15:14:10.612Z,2.10
2019-01-05T15:15:33.168Z,2.90
2019-01-05T15:17:09.710Z,2.45
2019-01-05T15:18:42.596Z,2.77
2019-01-05T15:20:05.440Z,2.50
2019-01-05T15:21:30.931Z,2.60
2019-01-05T15:23:06.993Z,3.20
2019-01-05T15:24:29.430Z,2.77
2019-01-05T15:25:52.108Z,3.98
2019-01-05T15:27:16.123Z,2.47
2019-01-05T15:28:38.257Z,2.05
2019-01-05T15:30:01.316Z,2.85
2019-01-05T15:31:33.393Z,2.90
2019-01-05T15:33:00.163Z,3.27
2019-01-05T15:34:25.874Z,2.30
2019-01-05T15:36:01.858Z,3.70
2019-01-05T15:37:25.842Z,2.85
2019-01-05T15:38:52.675Z,3.00
2019-01-05T15:40:15.335Z,3.25
2019-01-05T15:41:57.356Z,2.90
2019-01-05T15:43:26.957Z,2.55
2019-01-05T15:44:49.162Z,3.08
2019-01-05T15:46:13.140Z,2.92
2019-01-05T15:47:35.685Z,3.05
2019-01-05T15:49:08.447Z,3.25
2019-01-05T15:50:38.670Z,3.30
2019-01-05T15:52:00.701Z,3.22
2019-01-05T15:53:31.021Z,4.30
2019-01-05T15:54:55.025Z,3.75
2019-01-05T15:56:17.368Z,4.08
2019-01-05T15:57:47.422Z,3.65
2019-01-05T15:59:26.513Z,4.25
2019-01-05T16:00:58.820Z,3.58
2019-01-05T16:02:19.501Z,3.87
2019-01-05T16:04:01.389Z,4.05
2019-01-05T16:05:20.745Z,4.33
2019-01-05T16:06:47.422Z,4.33
2019-01-05T16:08:09.101Z,4.78
2019-01-05T16:09:32.195Z,6.97
2019-01-05T16:10:54.641Z,4.75
2019-01-05T16:12:24.575Z,4.85
2019-01-05T16:13:52.950Z,5.55
2019-01-05T16:15:12.251Z,3.08
2019-01-05T16:16:38.962Z,7.08
2019-01-05T16:18:06.603Z,4.58
2019-01-05T16:19:33.443Z,5.67
2019-01-05T16:21:03.633Z,4.85
2019-01-05T16:22:26.012Z,5.85
2019-01-05T16:24:07.893Z,5.33
2019-01-05T16:25:46.903Z,5.60
2019-01-05T16:27:29.092Z,5.42
2019-01-05T16:28:51.693Z,5.87
2019-01-05T16:30:10.521Z,6.28
2019-01-05T16:31:32.943Z,6.30
2019-01-05T16:32:55.371Z,6.10
2019-01-05T16:34:22.238Z,7.95
2019-01-05T16:35:49.292Z,7.30
2019-01-05T16:37:13.236Z,5.75
2019-01-05T16:38:35.846Z,6.92
2019-01-05T16:39:58.585Z,5.47
2019-01-05T16:41:32.084Z,6.08
2019-01-05T16:43:10.926Z,6.70
2019-01-05T16:44:33.555Z,6.47
2019-01-05T16:45:52.835Z,6.22
2019-01-05T16:47:15.227Z,6.83
2019-01-05T16:48:37.960Z,6.25
2019-01-05T16:50:00.269Z,6.25
2019-01-05T16:51:27.260Z,7.53
2019-01-05T16:52:49.622Z,5.95
2019-01-05T16:54:07.900Z,6.30
2019-01-05T16:55:34.837Z,6.75
2019-01-05T16:56:51.971Z,6.00
2019-01-05T16:58:19.252Z,8.35
2019-01-05T17:00:00.955Z,6.65
2019-01-05T17:01:42.984Z,6.30
2019-01-05T17:03:12.897Z,5.00
2019-01-05T17:04:56.124Z,7.45
2019-01-05T17:06:18.727Z,6.50
2019-01-05T17:07:51.549Z,7.33
2019-01-05T17:09:18.977Z,6.05
2019-01-05T17:10:38.836Z,6.95
2019-01-05T17:11:54.731Z,7.22
2019-01-05T17:13:17.752Z,6.80
2019-01-05T17:14:40.411Z,6.67
2019-01-05T17:16:19.764Z,7.53
2019-01-05T17:17:54.767Z,8.05
2019-01-05T17:19:14.148Z,6.33
2019-01-05T17:20:36.885Z,7.00
2019-01-05T17:21:59.501Z,6.53
2019-01-05T17:23:29.473Z,5.78
2019-01-05T17:25:11.342Z,6.87
2019-01-05T17:26:38.813Z,7.87
2019-01-05T17:28:02.765Z,6.78
2019-01-05T17:29:35.821Z,6.70
2019-01-05T17:31:02.425Z,6.62
2019-01-05T17:32:24.981Z,6.95
2019-01-05T17:33:56.800Z,7.03
2019-01-05T17:35:36.003Z,6.92
2019-01-05T17:37:00.171Z,6.08
2019-01-05T17:38:30.038Z,5.70
2019-01-05T17:39:52.467Z,6.83
2019-01-05T17:41:15.054Z,7.42
2019-01-05T17:42:33.182Z,6.37
2019-01-05T17:43:56.075Z,7.28
2019-01-05T17:45:14.513Z,6.65
2019-01-05T17:46:36.783Z,6.85
2019-01-05T17:48:01.138Z,6.42
2019-01-05T17:49:43.287Z,6.70
2019-01-05T17:51:13.139Z,5.80
2019-01-05T17:52:37.477Z,7.20
2019-01-05T17:54:11.271Z,7.45
2019-01-05T17:55:47.261Z,6.67
2019-01-05T17:57:09.685Z,6.17
2019-01-05T17:58:32.040Z,7.72
2019-01-05T18:00:01.134Z,6.72
2019-01-05T18:01:23.530Z,6.03
2019-01-05T18:02:50.338Z,5.90
2019-01-05T18:04:21.471Z,6.45
2019-01-05T18:05:43.821Z,7.72
2019-01-05T18:07:11.943Z,6.70
2019-01-05T18:08:41.934Z,6.30
2019-01-05T18:10:08.880Z,7.42
2019-01-05T18:11:47.031Z,7.05
2019-01-05T18:13:07.715Z,7.40
2019-01-05T18:14:41.779Z,7.62
2019-01-05T18:16:03.782Z,6.20
2019-01-05T18:17:26.212Z,6.55
2019-01-05T18:18:43.810Z,6.00
2019-01-05T18:20:06.715Z,6.67
2019-01-05T18:21:29.581Z,5.90
2019-01-05T18:22:53.803Z,6.67
2019-01-05T18:24:16.869Z,6.70
2019-01-05T18:25:49.973Z,6.45
2019-01-05T18:27:12.594Z,4.65
2019-01-05T18:28:39.308Z,6.90
2019-01-05T18:30:20.439Z,7.30
2019-01-05T18:31:43.028Z,6.15
2019-01-05T18:33:11.168Z,7.17
2019-01-05T18:34:33.981Z,7.50
2019-01-05T18:36:01.282Z,6.30
2019-01-05T18:37:28.615Z,5.95
2019-01-05T18:38:51.185Z,6.62
2019-01-05T18:40:21.611Z,5.72
2019-01-05T18:41:46.565Z,6.97
2019-01-05T18:43:08.918Z,7.03
2019-01-05T18:44:28.690Z,7.10
2019-01-05T18:45:45.330Z,6.15
2019-01-05T18:47:07.713Z,6.95
2019-01-05T18:48:27.944Z,7.95
2019-01-05T18:49:45.456Z,7.47
2019-01-05T18:51:04.530Z,7.47
2019-01-05T18:52:38.537Z,7.65
2019-01-05T18:54:01.397Z,6.37
2019-01-05T18:55:24.354Z,7.45
2019-01-05T18:56:54.143Z,6.08
2019-01-05T18:58:25.697Z,7.22
2019-01-05T18:59:48.732Z,7.40
2019-01-05T19:01:19.550Z,7.17
2019-01-05T19:02:46.528Z,8.15
2019-01-05T19:04:21.637Z,8.43
2019-01-05T19:05:46.614Z,6.17
2019-01-05T19:07:21.198Z,8.85
2019-01-05T19:08:49.086Z,7.30
2019-01-05T19:10:06.694Z,6.58
2019-01-05T19:11:37.789Z,8.53
2019-01-05T19:13:03.147Z,7.47
2019-01-05T19:14:30.431Z,7.47
2019-01-05T19:15:57.628Z,7.80
2019-01-05T19:17:26.455Z,7.62
2019-01-05T19:18:45.457Z,8.08
2019-01-05T19:20:09.430Z,7.40
2019-01-05T19:21:33.449Z,7.53
2019-01-05T19:23:06.757Z,7.87
2019-01-05T19:24:30.006Z,8.18
2019-01-05T19:26:06.122Z,8.63
2019-01-05T19:27:36.007Z,7.60
2019-01-05T19:28:58.630Z,8.40
2019-01-05T19:30:22.779Z,9.35
2019-01-05T19:31:44.364Z,8.80
2019-01-05T19:33:08.832Z,8.75
2019-01-05T19:34:31.260Z,8.60
2019-01-05T19:35:53.981Z,8.55
2019-01-05T19:37:17.424Z,8.43
2019-01-05T19:38:52.155Z,8.65
2019-01-05T19:40:21.900Z,8.95
2019-01-05T19:41:46.062Z,7.65
2019-01-05T19:43:08.605Z,7.85
2019-01-05T19:44:30.924Z,9.43
2019-01-05T19:45:53.917Z,9.78
2019-01-05T19:47:16.332Z,8.30
2019-01-05T19:48:50.370Z,8.93
2019-01-05T19:50:17.706Z,7.40
2019-01-05T19:51:47.691Z,8.93
2019-01-05T19:53:11.118Z,7.90
2019-01-05T19:54:39.118Z,9.38
2019-01-05T19:56:09.227Z,9.05
2019-01-05T19:57:35.916Z,8.55
2019-01-05T19:58:58.601Z,8.90
2019-01-05T20:00:24.240Z,9.23
2019-01-05T20:02:00.018Z,9.23
2019-01-05T20:03:22.802Z,11.33
2019-01-05T20:04:46.742Z,8.85
2019-01-05T20:06:06.502Z,8.85
2019-01-05T20:07:29.271Z,9.68
2019-01-05T20:09:08.277Z,10.08
2019-01-05T20:10:35.912Z,7.85
2019-01-05T20:11:58.339Z,7.33
2019-01-05T20:13:21.019Z,10.53
2019-01-05T20:14:51.230Z,8.88
2019-01-05T20:16:13.776Z,4.85
2019-01-05T20:17:37.961Z,10.28
2019-01-05T20:19:02.840Z,11.60
2019-01-05T20:20:25.372Z,11.18
2019-01-05T20:21:47.831Z,10.20
2019-01-05T20:23:17.798Z,10.98
2019-01-05T20:24:40.230Z,11.05
2019-01-05T20:26:03.233Z,10.03
2019-01-05T20:27:33.441Z,12.95
2019-01-05T20:29:02.047Z,10.85
2019-01-05T20:30:23.095Z,11.15
2019-01-05T20:31:45.913Z,10.58
2019-01-05T20:33:27.784Z,10.70
2019-01-05T20:34:46.984Z,9.50
2019-01-05T20:36:16.682Z,11.25
2019-01-05T20:37:39.241Z,10.43
2019-01-05T20:38:57.567Z,12.90
2019-01-05T20:40:34.287Z,9.78
2019-01-05T20:42:03.928Z,11.35
2019-01-05T20:43:26.639Z,9.70
2019-01-05T20:44:49.186Z,10.38
2019-01-05T20:46:11.667Z,10.80
2019-01-05T20:47:45.223Z,11.95
2019-01-05T20:49:07.801Z,10.48
2019-01-05T20:50:39.253Z,9.80
2019-01-05T20:52:12.312Z,10.90
2019-01-05T20:53:48.024Z,10.95
2019-01-05T20:55:10.525Z,10.03
2019-01-05T20:56:33.752Z,8.75
2019-01-05T20:58:03.852Z,10.20
2019-01-05T20:59:33.819Z,9.48
2019-01-05T21:00:56.378Z,10.93
2019-01-05T21:02:14.133Z,11.15
2019-01-05T21:03:44.233Z,10.80
2019-01-05T21:05:10.788Z,10.10
2019-01-05T21:06:34.888Z,10.63
2019-01-05T21:07:57.252Z,9.53
2019-01-05T21:09:19.663Z,11.20
2019-01-05T21:10:42.369Z,10.30
2019-01-05T21:12:05.910Z,10.65
2019-01-05T21:13:28.990Z,10.05
2019-01-05T21:14:51.660Z,8.95
2019-01-05T21:16:14.812Z,9.98
2019-01-05T21:17:43.353Z,7.97
2019-01-05T21:19:26.034Z,11.30
2019-01-05T21:20:48.900Z,11.03
2019-01-05T21:22:10.600Z,10.40
2019-01-05T21:23:33.106Z,10.85
2019-01-05T21:24:55.521Z,10.03
2019-01-05T21:26:11.444Z,10.13
2019-01-05T21:27:33.883Z,10.23
2019-01-05T21:29:03.044Z,10.13
2019-01-05T21:30:26.427Z,10.32
2019-01-05T21:31:48.811Z,10.90
2019-01-05T21:33:11.505Z,9.78
2019-01-05T21:34:50.270Z,9.33
2019-01-05T21:36:13.212Z,12.50
2019-01-05T21:37:29.200Z,11.15
2019-01-05T21:38:55.419Z,11.10
2019-01-05T21:40:18.370Z,10.93
2019-01-05T21:41:41.092Z,10.65
2019-01-05T21:43:14.129Z,7.70
2019-01-05T21:44:30.695Z,10.80
2019-01-05T21:45:55.754Z,10.30
2019-01-05T21:47:18.185Z,8.95
2019-01-05T21:48:41.018Z,9.85
2019-01-05T21:50:08.586Z,10.13
2019-01-05T21:51:43.383Z,9.75
2019-01-05T21:53:03.742Z,9.08
2019-01-05T21:54:27.835Z,9.20
2019-01-05T21:55:57.697Z,10.30
2019-01-05T21:57:39.685Z,10.63
2019-01-05T21:59:04.195Z,8.35
2019-01-05T22:00:28.798Z,9.35
2019-01-05T22:01:45.009Z,8.70
2019-01-05T22:03:15.098Z,9.90
2019-01-05T22:04:37.790Z,8.35
2019-01-05T22:06:00.677Z,8.85
2019-01-05T22:07:24.863Z,8.10
2019-01-05T22:08:45.852Z,8.60
2019-01-05T22:10:09.877Z,8.00
2019-01-05T22:11:32.098Z,8.45
2019-01-05T22:12:56.084Z,7.60
2019-01-05T22:14:19.323Z,7.25
2019-01-05T22:15:40.993Z,6.83
2019-01-05T22:17:19.921Z,8.70
2019-01-05T22:18:42.081Z,8.58
2019-01-05T22:20:01.208Z,9.68
2019-01-05T22:21:43.204Z,7.40
2019-01-05T22:23:05.535Z,7.47
2019-01-05T22:24:32.844Z,7.92
2019-01-05T22:26:10.669Z,6.55
2019-01-05T22:27:33.449Z,8.98
2019-01-05T22:29:00.520Z,8.48
2019-01-05T22:30:37.879Z,5.20
2019-01-05T22:32:01.588Z,8.03
2019-01-05T22:33:24.029Z,8.25
2019-01-05T22:34:50.932Z,6.97
2019-01-05T22:36:14.915Z,8.10